• Join FlightAware (Why Join?)
  • Login
  • US Flag 
05:21AM EDT


 

Airport Tracker/Info


-or-


 

Live Flight TrackerFlight Track Log ✈ CTL13 ✈ 27-Jun-2013 ✈ KEYE - KMDW

Flight Track Log - Related Links

Times and Time Zones

All times are in EDT time to prevent confusion due to time zone crossing. See the CTL13 flight status page for this flight to view local times or setup timezone preferences in your user account.

Time Position Orientation Groundspeed Altitude Reporting Facility
EDT Latitude Longitude Course Direction KTS MPH feet Rate Location/Type
08:37PM 39.9000 -86.3000 323° Northwest 152 175 1,900  Level Indianapolis TRACON
08:38PM 39.9333 -86.3000 360° North 147 169 2,300 360 Climbing Indianapolis TRACON
08:39PM 39.9522 -86.3208 320° Northwest 142 163 2,500 360 Climbing Chicago Center
08:40PM 39.9850 -86.3467 329° Northwest 143 165 2,900 360 Climbing Indianapolis Center
08:41PM 40.0181 -86.3722 329° Northwest 141 162 3,300 240 Climbing Indianapolis Center
08:43PM 39.9293 -86.2520 21° North  Level FlightAware Approximate
08:43PM 40.0604 -86.4135 323° Northwest  Level FlightAware Approximate
08:44PM 40.1228 -86.4575 323° Northwest 138 159 4,000  Level Chicago Center
08:45PM 40.1586 -86.4850 330° Northwest 145 167 4,000  Level Indianapolis Center
08:46PM 40.1933 -86.5128 329° Northwest 147 169 4,000  Level Indianapolis Center
08:47PM 40.2211 -86.5369 326° Northwest 146 168 4,000  Level Chicago Center
08:48PM 40.2578 -86.5664 329° Northwest 146 168 4,000  Level Chicago Center
08:49PM 40.2922 -86.5903 332° Northwest 145 167 4,000  Level Chicago Center
08:50PM 40.3289 -86.6197 329° Northwest 146 168 4,000  Level Chicago Center
08:51PM 40.3633 -86.6436 332° Northwest 147 169 4,000  Level Chicago Center
08:52PM 40.3978 -86.6758 325° Northwest 146 168 4,000  Level Chicago Center
08:53PM 40.4342 -86.7081 326° Northwest 146 168 4,000  Level Chicago Center
08:53PM 40.4503 -86.7194 332° Northwest 148 170 4,000  Level Chicago Center
08:54PM 40.4664 -86.7347 324° Northwest 147 169 4,000  Level Chicago Center
08:54PM 40.4856 -86.7431 342° North 145 167 4,000  Level Chicago Center
08:55PM 40.5072 -86.7619 326° Northwest 146 168 4,000  Level Chicago Center
08:56PM 40.5417 -86.7889 329° Northwest 146 168 4,000  Level Chicago Center
08:57PM 40.5803 -86.8161 332° Northwest 147 169 4,000  Level Chicago Center
08:57PM 40.5992 -86.8289 333° Northwest 149 171 4,000  Level Chicago Center
08:58PM 40.6169 -86.8431 329° Northwest 146 168 4,000  Level Chicago Center
08:58PM 40.6342 -86.8544 333° Northwest 145 167 4,000  Level Chicago Center
08:59PM 40.6711 -86.8800 332° Northwest 148 170 4,000  Level Chicago Center
09:01PM 40.7047 -86.9081 328° Northwest 145 167 4,000 -60 Level Chicago Center
09:02PM 40.7425 -86.9342 332° Northwest 148 170 3,900  Descending Chicago Center
09:03PM 40.7756 -86.9614 328° Northwest 143 165 4,000  Climbing Chicago Center
09:04PM 40.8172 -86.9942 329° Northwest 145 167 4,000  Level Chicago Center
09:05PM 40.8536 -87.0203 332° Northwest 147 169 4,000  Level Chicago Center
09:06PM 40.8878 -87.0489 328° Northwest 147 169 4,000 -60 Level Chicago Center
09:07PM 40.9236 -87.0736 332° Northwest 146 168 3,900  Descending Chicago Center
09:08PM 40.9575 -87.1008 329° Northwest 145 167 4,000  Climbing Chicago Center
09:09PM 41.0008 -87.1311 332° Northwest 145 167 4,000  Level Chicago Center
09:10PM 41.0328 -87.1608 325° Northwest 145 167 4,000  Level Chicago Center
09:11PM 41.0672 -87.1881 329° Northwest 144 166 4,000  Level Chicago Center
09:12PM 41.1019 -87.2156 329° Northwest 146 168 4,000 -60 Level Chicago Center
09:13PM 41.1364 -87.2422 330° Northwest 145 167 3,900  Descending Chicago Center
09:14PM 41.1792 -87.2742 331° Northwest 146 168 4,000  Climbing Chicago Center
09:15PM 41.2139 -87.3031 328° Northwest 147 169 4,000  Level Chicago Center
09:16PM 41.2481 -87.3300 329° Northwest 146 168 4,000  Level Chicago Center
09:17PM 41.2814 -87.3578 328° Northwest 144 166 4,000  Level Chicago Center
09:18PM 41.3161 -87.3853 329° Northwest 146 168 4,000  Level Chicago Center
09:19PM 41.3492 -87.4142 327° Northwest 145 167 4,000  Level Chicago Center
09:20PM 41.3894 -87.4467 329° Northwest 143 165 4,000  Level Chicago Center
09:21PM 41.4317 -87.4469 360° North 151 174 4,000  Level Chicago Center
09:22PM 41.4717 -87.4508 356° North 148 170 4,000  Level Chicago Center
09:23PM 41.5125 -87.4544 356° North 146 168 4,000  Level Chicago Center
09:24PM 41.5522 -87.4631 351° North 146 168 4,000  Level Chicago Center
09:25PM 41.6000 -87.4758 349° North 148 170 4,100  Climbing Chicago Center
09:26PM 41.6244 -87.4983 325° Northwest 170 196 4,000 -60 Descending Chicago Center
09:27PM 41.5878 -87.5372 218° Southwest 174 200 4,000 -180 Level Chicago Center
09:28PM 41.5517 -87.5786 221° Southwest 173 199 3,700 -480 Descending Chicago Center
09:29PM 41.5411 -87.6350 256° West 170 196 3,100 -360 Descending Chicago Center
09:30PM 41.5647 -87.6950 298° West 160 184 3,000 -60 Descending Chicago Center
09:31PM 41.5811 -87.7428 295° West 152 175 3,000  Level Chicago Center
09:33PM 41.5831 -87.7892 273° West 157 181 3,000 -60 Level Chicago Center
09:34PM 41.5589 -87.8403 238° Southwest 160 184 2,900  Descending Chicago Center
09:35PM 41.5381 -87.8903 241° Southwest 159 183 3,100  Climbing Chicago Center
09:36PM 41.5628 -87.9403 303° West 148 170 2,900 -240 Descending Chicago Center
09:37PM 41.6044 -87.9297 11° North 159 183 2,700 -240 Descending Chicago Center
09:38PM 41.6436 -87.9008 29° Northeast 161 185 2,500 -240 Descending Chicago Center
09:39PM 41.6806 -87.8631 37° Northeast 165 190 2,300 -120 Descending Chicago Center
09:40PM 41.7156 -87.8269 38° Northeast 164 189 2,300 -360 Level Chicago Center
09:41PM 41.7506 -87.7922 37° Northeast 161 185 1,600 -720 Descending Chicago Center
09:42PM 41.7828 -87.7583 38° Northeast 153 176 900 -720 Descending Chicago Center